KIAD/IAD METAR and TAF weather

Enter ICAO airport designator
Station Type Date Time Source
KIAD METAR 2022/01/19 18:52 UTC NOAA

KIAD 191852Z 21011KT 10SM SCT110 BKN170 BKN230 10/M04 A2999 RMK AO2 SLP159 T01001039


Station Type Date Time Source
KIAD Decoded METAR 2022/01/19 18:52 UTC NOAA

DULLES INTERNATIONAL AIRPORT, VA, United States (KIAD) 38-56N 077-27W 93M
Jan 19, 2022 - 01:52 PM EST / 2022.01.19 1852 UTC
Wind: from the SSW (210 degrees) at 13 MPH (11 KT):0
Visibility: 10 mile(s):0
Sky conditions: mostly cloudy
Temperature: 50.0 F (10.0 C)
Dew Point: 25.0 F (-3.9 C)
Relative Humidity: 37%
Pressure (altimeter): 29.99 in. Hg (1015 hPa)
ob: KIAD 191852Z 21011KT 10SM SCT110 BKN170 BKN230 10/M04 A2999 RMK AO2 SLP159 T01001039
cycle: 19

Station Type Date Time Source
KIAD TAF 2022/01/19 18:22 UTC NOAA

TAF KIAD 191720Z 1918/2024 20010G19KT P6SM BKN250
FM200000 21007KT P6SM BKN250
FM200400 22004KT P6SM -RA OVC030
FM201000 34006KT 4SM RASN BR OVC006
FM201300 35009KT 1/2SM SN OVC008
FM201500 34010KT 3SM -SN BR OVC015
FM202100 34010KT P6SM SCT150

Example: see airport list